createdAt,value
2023-03-07T00:01:28.881Z,61.55
2023-03-07T00:03:56.393Z,61.31
2023-03-07T00:06:23.519Z,61.34
2023-03-07T00:08:55.229Z,61.40
2023-03-07T00:11:21.959Z,61.18
2023-03-07T00:13:49.023Z,61.38
2023-03-07T00:16:20.312Z,61.32
2023-03-07T00:18:47.078Z,61.37
2023-03-07T00:21:15.898Z,61.41
2023-03-07T00:23:44.056Z,61.44
2023-03-07T00:26:22.353Z,61.30
2023-03-07T00:28:50.504Z,61.39
2023-03-07T00:31:18.423Z,61.32
2023-03-07T00:33:45.077Z,61.43
2023-03-07T00:36:16.886Z,61.21
2023-03-07T00:38:43.575Z,61.25
2023-03-07T00:41:15.048Z,61.46
2023-03-07T00:43:41.986Z,61.43
2023-03-07T00:46:09.151Z,61.35
2023-03-07T00:48:37.697Z,61.49
2023-03-07T00:51:05.499Z,61.32
2023-03-07T00:53:32.223Z,61.41
2023-03-07T00:56:05.977Z,61.46
2023-03-07T00:58:35.120Z,61.27
2023-03-07T01:01:02.285Z,61.51
2023-03-07T01:03:29.011Z,61.44
2023-03-07T01:05:55.746Z,61.67
2023-03-07T01:08:24.236Z,61.66
2023-03-07T01:10:50.916Z,61.36
2023-03-07T01:13:19.405Z,61.66
2023-03-07T01:15:46.004Z,61.62
2023-03-07T01:18:12.790Z,61.81
2023-03-07T01:20:41.126Z,61.72
2023-03-07T01:23:07.985Z,61.82
2023-03-07T01:25:39.986Z,62.01
2023-03-07T01:28:06.676Z,61.77
2023-03-07T01:30:34.164Z,61.62
2023-03-07T01:33:02.393Z,61.62
2023-03-07T01:35:29.264Z,61.68
2023-03-07T01:37:56.159Z,61.55
2023-03-07T01:40:24.167Z,61.65
2023-03-07T01:42:53.088Z,61.90
2023-03-07T01:45:34.677Z,61.59
2023-03-07T01:48:01.276Z,61.62
2023-03-07T01:50:27.974Z,61.60
2023-03-07T01:52:57.304Z,61.69
2023-03-07T01:55:29.888Z,61.70
2023-03-07T01:57:57.311Z,61.57
2023-03-07T02:00:28.838Z,61.66
2023-03-07T02:03:12.482Z,61.65
2023-03-07T02:05:54.012Z,61.72
2023-03-07T02:08:22.654Z,61.71
2023-03-07T02:10:49.435Z,61.73
2023-03-07T02:13:16.243Z,61.68
2023-03-07T02:15:42.964Z,61.98
2023-03-07T02:18:12.667Z,61.84
2023-03-07T02:20:46.645Z,61.71
2023-03-07T02:23:38.994Z,61.55
2023-03-07T02:26:05.443Z,61.62
2023-03-07T02:28:32.036Z,61.65
2023-03-07T02:31:08.229Z,61.68
2023-03-07T02:33:34.850Z,61.57
2023-03-07T02:36:08.434Z,61.76
2023-03-07T02:38:38.045Z,61.71
2023-03-07T02:41:04.761Z,61.76
2023-03-07T02:43:31.312Z,61.90
2023-03-07T02:45:57.890Z,61.89
2023-03-07T02:48:24.469Z,61.90
2023-03-07T02:50:51.042Z,62.03
2023-03-07T02:53:17.545Z,62.05
2023-03-07T02:55:44.046Z,62.06
2023-03-07T02:58:10.531Z,62.30
2023-03-07T03:00:37.268Z,62.10
2023-03-07T03:03:04.179Z,62.26
2023-03-07T03:05:30.922Z,62.17
2023-03-07T03:07:57.562Z,62.32
2023-03-07T03:10:24.208Z,62.19
2023-03-07T03:12:50.680Z,62.08
2023-03-07T03:15:17.292Z,62.40
2023-03-07T03:17:44.425Z,62.35
2023-03-07T03:20:12.869Z,62.31
2023-03-07T03:22:40.741Z,62.35
2023-03-07T03:25:13.084Z,62.42
2023-03-07T03:27:40.370Z,62.29
2023-03-07T03:30:08.760Z,62.45
2023-03-07T03:32:37.477Z,62.25
2023-03-07T03:35:05.384Z,62.28
2023-03-07T03:37:32.422Z,62.09
2023-03-07T03:39:58.974Z,62.27
2023-03-07T03:42:26.041Z,61.95
2023-03-07T03:44:52.525Z,62.09
2023-03-07T03:47:19.057Z,61.92
2023-03-07T03:49:45.543Z,62.08
2023-03-07T03:52:12.148Z,62.07
2023-03-07T03:54:38.761Z,62.19
2023-03-07T03:57:05.335Z,62.46
2023-03-07T03:59:31.912Z,62.33
2023-03-07T04:01:58.712Z,62.46
2023-03-07T04:04:25.396Z,62.56
2023-03-07T04:06:51.951Z,62.38
2023-03-07T04:09:18.417Z,62.54
2023-03-07T04:11:44.979Z,62.52
2023-03-07T04:14:11.574Z,62.67
2023-03-07T04:16:38.216Z,62.64
2023-03-07T04:19:04.766Z,62.54
2023-03-07T04:21:31.313Z,62.59
2023-03-07T04:23:58.479Z,62.54
2023-03-07T04:26:25.400Z,62.37
2023-03-07T04:28:52.067Z,62.72
2023-03-07T04:31:21.138Z,62.61
2023-03-07T04:33:48.378Z,62.58
2023-03-07T04:36:18.677Z,62.58
2023-03-07T04:38:46.179Z,62.44
2023-03-07T04:41:21.617Z,62.35
2023-03-07T04:43:48.174Z,62.54
2023-03-07T04:46:16.166Z,62.59
2023-03-07T04:48:42.778Z,62.57
2023-03-07T04:51:09.607Z,62.67
2023-03-07T04:53:36.347Z,62.48
2023-03-07T04:56:05.731Z,62.52
2023-03-07T04:58:32.835Z,62.45
2023-03-07T05:01:01.054Z,62.41
2023-03-07T05:03:28.077Z,62.52
2023-03-07T05:05:55.120Z,62.54
2023-03-07T05:08:22.631Z,62.43
2023-03-07T05:10:49.208Z,62.57
2023-03-07T05:13:15.982Z,62.36
2023-03-07T05:15:42.562Z,62.57
2023-03-07T05:18:09.096Z,62.49
2023-03-07T05:20:35.738Z,62.34
2023-03-07T05:23:02.304Z,62.59
2023-03-07T05:25:28.856Z,62.26
2023-03-07T05:27:55.468Z,62.36
2023-03-07T05:30:22.303Z,62.37
2023-03-07T05:32:49.007Z,62.28
2023-03-07T05:35:16.184Z,62.25
2023-03-07T05:37:42.795Z,62.46
2023-03-07T05:40:10.569Z,62.21
2023-03-07T05:42:37.426Z,62.14
2023-03-07T05:45:05.878Z,62.17
2023-03-07T05:47:32.799Z,62.16
2023-03-07T05:49:59.332Z,62.12
2023-03-07T05:52:26.791Z,62.05
2023-03-07T05:54:53.298Z,61.95
2023-03-07T05:57:19.852Z,61.96
2023-03-07T05:59:46.353Z,61.93
2023-03-07T06:02:13.134Z,62.04
2023-03-07T06:04:39.661Z,61.87
2023-03-07T06:07:06.201Z,61.72
2023-03-07T06:09:32.728Z,61.63
2023-03-07T06:11:59.366Z,61.63
2023-03-07T06:14:25.851Z,61.81
2023-03-07T06:16:52.456Z,61.54
2023-03-07T06:19:19.081Z,61.73
2023-03-07T06:21:45.620Z,61.82
2023-03-07T06:24:12.159Z,61.80
2023-03-07T06:26:38.706Z,61.64
2023-03-07T06:29:05.307Z,61.62
2023-03-07T06:31:31.971Z,61.34
2023-03-07T06:33:58.537Z,61.50
2023-03-07T06:36:25.077Z,61.73
2023-03-07T06:38:51.687Z,61.47
2023-03-07T06:41:18.237Z,61.50
2023-03-07T06:43:44.720Z,61.54
2023-03-07T06:46:11.503Z,61.46
2023-03-07T06:48:38.061Z,61.45
2023-03-07T06:51:08.922Z,61.53
2023-03-07T06:53:35.716Z,61.56
2023-03-07T06:56:02.507Z,61.58
2023-03-07T06:58:29.004Z,61.34
2023-03-07T07:00:55.680Z,61.35
2023-03-07T07:03:22.428Z,61.23
2023-03-07T07:05:48.945Z,61.12
2023-03-07T07:08:15.452Z,61.27
2023-03-07T07:10:42.058Z,61.19
2023-03-07T07:13:08.782Z,61.10
2023-03-07T07:15:35.523Z,60.88
2023-03-07T07:18:02.104Z,60.90
2023-03-07T07:20:28.998Z,60.97
2023-03-07T07:22:55.768Z,60.94
2023-03-07T07:25:22.293Z,60.89
2023-03-07T07:27:48.870Z,60.84
2023-03-07T07:30:15.719Z,60.71
2023-03-07T07:32:42.507Z,60.65
2023-03-07T07:35:09.817Z,60.61
2023-03-07T07:37:36.323Z,60.29
2023-03-07T07:40:05.195Z,60.36
2023-03-07T07:42:32.390Z,60.22
2023-03-07T07:44:59.042Z,60.22
2023-03-07T07:47:25.576Z,60.13
2023-03-07T07:49:52.076Z,59.82
2023-03-07T07:52:18.606Z,59.78
2023-03-07T07:54:45.126Z,59.69
2023-03-07T07:57:11.583Z,59.57
2023-03-07T07:59:38.105Z,59.51
2023-03-07T08:02:04.682Z,59.45
2023-03-07T08:04:31.348Z,59.38
2023-03-07T08:06:57.906Z,59.30
2023-03-07T08:09:24.390Z,59.27
2023-03-07T08:11:51.171Z,59.20
2023-03-07T08:14:17.765Z,59.15
2023-03-07T08:16:44.305Z,59.01
2023-03-07T08:19:11.009Z,59.09
2023-03-07T08:21:37.650Z,59.04
2023-03-07T08:24:04.356Z,58.84
2023-03-07T08:26:31.657Z,58.78
2023-03-07T08:28:58.553Z,58.64
2023-03-07T08:31:25.319Z,58.73
2023-03-07T08:33:52.397Z,58.56
2023-03-07T08:36:19.069Z,58.46
2023-03-07T08:38:51.694Z,58.34
2023-03-07T08:41:19.708Z,58.23
2023-03-07T08:43:46.264Z,57.99
2023-03-07T08:46:13.152Z,57.96
2023-03-07T08:48:39.978Z,57.85
2023-03-07T08:51:08.499Z,57.69
2023-03-07T08:53:35.136Z,57.55
2023-03-07T08:56:06.084Z,57.58
2023-03-07T08:58:32.550Z,57.64
2023-03-07T09:00:59.131Z,57.66
2023-03-07T09:03:25.727Z,57.79
2023-03-07T09:05:52.355Z,57.66
2023-03-07T09:08:18.952Z,57.76
2023-03-07T09:10:45.622Z,57.68
2023-03-07T09:13:14.106Z,57.82
2023-03-07T09:15:41.313Z,57.93
2023-03-07T09:18:08.567Z,57.86
2023-03-07T09:20:35.435Z,57.83
2023-03-07T09:23:02.010Z,57.73
2023-03-07T09:25:28.600Z,57.76
2023-03-07T09:27:55.165Z,57.90
2023-03-07T09:30:23.075Z,58.07
2023-03-07T09:32:50.175Z,58.29
2023-03-07T09:35:16.745Z,58.13
2023-03-07T09:37:43.531Z,58.16
2023-03-07T09:40:16.867Z,58.25
2023-03-07T09:43:03.546Z,58.16
2023-03-07T09:45:46.889Z,58.38
2023-03-07T09:48:16.648Z,58.38
2023-03-07T09:50:58.450Z,58.38
2023-03-07T09:53:32.995Z,58.29
2023-03-07T09:56:01.658Z,58.44
2023-03-07T09:58:28.263Z,58.48
2023-03-07T10:01:01.554Z,58.55
2023-03-07T10:03:56.998Z,58.44
2023-03-07T10:06:25.165Z,58.35
2023-03-07T10:08:52.207Z,58.22
2023-03-07T10:11:48.703Z,58.12
2023-03-07T10:14:42.848Z,58.29
2023-03-07T10:17:15.483Z,58.09
2023-03-07T10:19:49.982Z,58.04
2023-03-07T10:22:43.040Z,57.86
2023-03-07T10:25:29.086Z,57.68
2023-03-07T10:28:21.889Z,57.50
2023-03-07T10:30:50.638Z,57.27
2023-03-07T10:33:18.858Z,57.14
2023-03-07T10:35:54.816Z,56.88
2023-03-07T10:38:33.630Z,56.55
2023-03-07T10:41:14.752Z,56.44
2023-03-07T10:43:42.934Z,56.30
2023-03-07T10:46:26.336Z,56.12
2023-03-07T10:49:10.433Z,56.17
2023-03-07T10:51:59.309Z,55.75
2023-03-07T10:54:37.045Z,55.78
2023-03-07T10:57:04.689Z,55.61
2023-03-07T10:59:31.522Z,55.30
2023-03-07T11:01:59.827Z,55.30
2023-03-07T11:04:29.140Z,54.88
2023-03-07T11:07:02.312Z,54.83
2023-03-07T11:09:30.697Z,54.58
2023-03-07T11:12:06.167Z,54.46
2023-03-07T11:14:50.514Z,54.54
2023-03-07T11:17:22.358Z,54.22
2023-03-07T11:19:50.350Z,54.49
2023-03-07T11:22:19.811Z,54.39
2023-03-07T11:24:56.835Z,54.03
2023-03-07T11:27:45.153Z,54.04
2023-03-07T11:30:20.459Z,54.11
2023-03-07T11:33:18.509Z,53.53
2023-03-07T11:36:09.751Z,53.78
2023-03-07T11:38:44.913Z,53.84
2023-03-07T11:41:31.711Z,53.67
2023-03-07T11:44:05.563Z,53.50
2023-03-07T11:46:38.636Z,53.66
2023-03-07T11:49:32.736Z,53.55
2023-03-07T11:52:05.936Z,53.54
2023-03-07T11:54:44.209Z,53.29
2023-03-07T11:57:38.790Z,53.28
2023-03-07T12:00:53.412Z,53.21
2023-03-07T12:03:37.974Z,53.09
2023-03-07T12:06:11.210Z,53.38
2023-03-07T12:08:44.160Z,53.09
2023-03-07T12:11:20.578Z,53.16
2023-03-07T12:14:03.988Z,53.15
2023-03-07T12:16:53.992Z,52.97
2023-03-07T12:19:32.880Z,52.92
2023-03-07T12:22:11.587Z,52.99
2023-03-07T12:24:45.601Z,52.98
2023-03-07T12:27:17.652Z,52.86
2023-03-07T12:30:14.014Z,52.57
2023-03-07T12:32:41.338Z,52.55
2023-03-07T12:35:41.528Z,52.45
2023-03-07T12:38:13.180Z,52.18
2023-03-07T12:40:48.423Z,52.17
2023-03-07T12:43:29.607Z,52.12
2023-03-07T12:45:57.756Z,52.19
2023-03-07T12:48:33.824Z,51.86
2023-03-07T12:51:09.805Z,51.98
2023-03-07T12:53:51.300Z,51.76
2023-03-07T12:56:48.227Z,51.88
2023-03-07T12:59:15.977Z,51.83
2023-03-07T13:01:48.461Z,51.89
2023-03-07T13:04:22.910Z,51.81
2023-03-07T13:06:50.016Z,51.70
2023-03-07T13:09:24.448Z,52.05
2023-03-07T13:12:16.337Z,52.37
2023-03-07T13:14:44.773Z,52.59
2023-03-07T13:17:12.612Z,52.54
2023-03-07T13:19:39.421Z,52.45
2023-03-07T13:22:14.986Z,52.88
2023-03-07T13:24:45.510Z,52.85
2023-03-07T13:27:20.175Z,52.89
2023-03-07T13:30:05.126Z,52.82
2023-03-07T13:32:56.665Z,52.83
2023-03-07T13:35:29.288Z,52.97
2023-03-07T13:38:13.279Z,53.28
2023-03-07T13:40:48.945Z,53.18
2023-03-07T13:43:27.222Z,53.54
2023-03-07T13:46:04.403Z,53.64
2023-03-07T13:48:31.009Z,53.52
2023-03-07T13:51:00.538Z,53.85
2023-03-07T13:53:52.718Z,53.66
2023-03-07T13:56:26.211Z,53.94
2023-03-07T13:58:59.729Z,54.02
2023-03-07T14:01:30.305Z,53.97
2023-03-07T14:04:08.501Z,54.16
2023-03-07T14:06:43.500Z,54.21
2023-03-07T14:09:16.099Z,54.21
2023-03-07T14:11:54.929Z,54.15
2023-03-07T14:14:36.577Z,54.27
2023-03-07T14:17:06.245Z,54.17
2023-03-07T14:19:57.455Z,54.14
2023-03-07T14:22:42.634Z,54.12
2023-03-07T14:25:23.033Z,54.25
2023-03-07T14:28:23.049Z,54.23
2023-03-07T14:30:54.223Z,54.22
2023-03-07T14:33:21.116Z,54.58
2023-03-07T14:35:47.766Z,54.50
2023-03-07T14:38:23.036Z,54.80
2023-03-07T14:40:58.644Z,54.53
2023-03-07T14:43:53.194Z,54.69
2023-03-07T14:46:38.643Z,54.79
2023-03-07T14:49:22.974Z,54.92
2023-03-07T14:51:49.514Z,54.84
2023-03-07T14:54:18.485Z,55.03
2023-03-07T14:56:46.249Z,54.78
2023-03-07T14:59:25.892Z,54.71
2023-03-07T15:01:54.910Z,54.76
2023-03-07T15:04:29.047Z,54.76
2023-03-07T15:07:01.283Z,54.84
2023-03-07T15:09:28.661Z,54.93
2023-03-07T15:12:07.468Z,54.84
2023-03-07T15:14:49.780Z,55.08
2023-03-07T15:17:43.681Z,55.04
2023-03-07T15:20:26.510Z,55.05
2023-03-07T15:23:02.610Z,54.95
2023-03-07T15:25:30.127Z,55.22
2023-03-07T15:28:05.688Z,55.00
2023-03-07T15:30:37.092Z,55.00
2023-03-07T15:33:05.135Z,55.13
2023-03-07T15:35:32.390Z,55.16
2023-03-07T15:38:06.986Z,55.30
2023-03-07T15:40:35.005Z,55.34
2023-03-07T15:43:04.806Z,55.09
2023-03-07T15:45:38.399Z,55.39
2023-03-07T15:48:17.705Z,55.33
2023-03-07T15:50:54.704Z,55.76
2023-03-07T15:53:27.543Z,55.86
2023-03-07T15:56:26.330Z,55.76
2023-03-07T15:58:58.448Z,55.99
2023-03-07T16:01:26.722Z,56.06
2023-03-07T16:03:58.891Z,56.52
2023-03-07T16:06:31.800Z,56.20
2023-03-07T16:08:58.341Z,56.54
2023-03-07T16:11:24.938Z,56.29
2023-03-07T16:13:51.666Z,56.42
2023-03-07T16:16:22.066Z,56.47
2023-03-07T16:18:48.931Z,56.52
2023-03-07T16:21:16.595Z,56.68
2023-03-07T16:23:43.902Z,56.78
2023-03-07T16:26:18.247Z,56.92
2023-03-07T16:28:44.800Z,56.92
2023-03-07T16:31:16.206Z,56.95
2023-03-07T16:33:44.142Z,57.06
2023-03-07T16:36:11.285Z,56.91
2023-03-07T16:38:38.154Z,57.17
2023-03-07T16:41:12.284Z,57.30
2023-03-07T16:43:39.395Z,57.31
2023-03-07T16:46:11.861Z,57.30
2023-03-07T16:48:38.458Z,57.35
2023-03-07T16:51:05.774Z,57.61
2023-03-07T16:53:32.431Z,57.99
2023-03-07T16:55:59.350Z,57.82
2023-03-07T16:58:29.630Z,57.81
2023-03-07T17:00:58.944Z,57.81
2023-03-07T17:03:26.562Z,58.02
2023-03-07T17:05:53.162Z,58.04
2023-03-07T17:08:19.724Z,58.18
2023-03-07T17:10:46.616Z,58.24
2023-03-07T17:13:17.494Z,58.36
2023-03-07T17:15:45.434Z,58.48
2023-03-07T17:18:12.326Z,58.44
2023-03-07T17:20:39.323Z,58.43
2023-03-07T17:23:05.839Z,58.66
2023-03-07T17:25:32.441Z,58.63
2023-03-07T17:28:02.719Z,58.62
2023-03-07T17:30:30.628Z,58.69
2023-03-07T17:32:57.776Z,58.70
2023-03-07T17:35:24.548Z,59.02
2023-03-07T17:37:53.027Z,59.00
2023-03-07T17:40:20.739Z,58.91
2023-03-07T17:42:50.508Z,59.12
2023-03-07T17:45:17.588Z,59.13
2023-03-07T17:47:44.123Z,59.07
2023-03-07T17:50:11.447Z,59.13
2023-03-07T17:52:38.162Z,59.24
2023-03-07T17:55:09.506Z,59.29
2023-03-07T17:57:36.486Z,59.44
2023-03-07T18:00:06.878Z,59.38
2023-03-07T18:02:35.092Z,59.41
2023-03-07T18:05:01.654Z,59.34
2023-03-07T18:07:28.251Z,59.19
2023-03-07T18:10:07.270Z,59.28
2023-03-07T18:12:35.198Z,59.37
2023-03-07T18:15:01.801Z,59.39
2023-03-07T18:17:38.409Z,59.44
2023-03-07T18:20:13.927Z,59.55
2023-03-07T18:22:40.579Z,59.33
2023-03-07T18:25:09.843Z,59.46
2023-03-07T18:27:36.848Z,59.35
2023-03-07T18:30:04.441Z,59.43
2023-03-07T18:32:34.843Z,59.60
2023-03-07T18:35:01.597Z,59.38
2023-03-07T18:37:28.830Z,59.56
2023-03-07T18:39:55.829Z,59.48
2023-03-07T18:42:22.493Z,59.32
2023-03-07T18:44:49.195Z,59.32
2023-03-07T18:47:15.823Z,59.34
2023-03-07T18:49:42.457Z,59.14
2023-03-07T18:52:09.021Z,59.11
2023-03-07T18:54:35.623Z,59.23
2023-03-07T18:57:02.152Z,59.22
2023-03-07T18:59:28.854Z,59.07
2023-03-07T19:01:55.530Z,58.99
2023-03-07T19:04:22.076Z,59.04
2023-03-07T19:06:48.695Z,58.88
2023-03-07T19:09:17.557Z,58.86
2023-03-07T19:11:44.195Z,58.83
2023-03-07T19:14:10.797Z,58.84
2023-03-07T19:16:37.643Z,58.68
2023-03-07T19:19:04.442Z,58.69
2023-03-07T19:21:31.221Z,58.59
2023-03-07T19:23:59.551Z,58.68
2023-03-07T19:26:26.375Z,58.69
2023-03-07T19:28:54.231Z,58.60
2023-03-07T19:31:29.553Z,58.63
2023-03-07T19:33:56.553Z,58.68
2023-03-07T19:36:27.539Z,58.69
2023-03-07T19:38:56.487Z,58.57
2023-03-07T19:41:25.092Z,58.37
2023-03-07T19:43:52.348Z,58.34
2023-03-07T19:46:20.143Z,58.28
2023-03-07T19:48:46.785Z,58.16
2023-03-07T19:51:18.218Z,58.13
2023-03-07T19:53:48.503Z,58.10
2023-03-07T19:56:20.104Z,58.01
2023-03-07T19:58:46.827Z,58.10
2023-03-07T20:01:15.968Z,58.04
2023-03-07T20:03:42.581Z,58.05
2023-03-07T20:06:12.264Z,57.88
2023-03-07T20:08:38.887Z,57.98
2023-03-07T20:11:14.260Z,57.92
2023-03-07T20:13:42.216Z,57.82
2023-03-07T20:16:10.468Z,57.80
2023-03-07T20:18:38.177Z,57.88
2023-03-07T20:21:13.327Z,57.83
2023-03-07T20:23:42.438Z,57.73
2023-03-07T20:26:31.725Z,57.75
2023-03-07T20:28:58.831Z,57.76
2023-03-07T20:31:25.700Z,57.82
2023-03-07T20:33:52.678Z,57.99
2023-03-07T20:36:20.422Z,57.88
2023-03-07T20:39:10.162Z,57.93
2023-03-07T20:41:36.748Z,57.91
2023-03-07T20:44:05.823Z,58.12
2023-03-07T20:46:32.897Z,58.13
2023-03-07T20:49:00.767Z,58.23
2023-03-07T20:51:29.994Z,58.29
2023-03-07T20:54:00.503Z,58.37
2023-03-07T20:56:28.617Z,58.51
2023-03-07T20:58:56.190Z,58.38
2023-03-07T21:01:24.286Z,58.33
2023-03-07T21:03:52.473Z,58.29
2023-03-07T21:06:19.252Z,58.22
2023-03-07T21:08:49.162Z,58.26
2023-03-07T21:11:20.393Z,58.27
2023-03-07T21:13:49.378Z,58.24
2023-03-07T21:16:22.037Z,58.08
2023-03-07T21:18:48.923Z,57.88
2023-03-07T21:21:17.928Z,58.07
2023-03-07T21:23:44.553Z,57.97
2023-03-07T21:26:19.744Z,57.94
2023-03-07T21:28:47.160Z,58.00
2023-03-07T21:31:13.683Z,58.13
2023-03-07T21:33:44.876Z,58.07
2023-03-07T21:36:14.255Z,58.14
2023-03-07T21:38:41.776Z,58.34
2023-03-07T21:41:08.886Z,58.15
2023-03-07T21:43:35.701Z,58.29
2023-03-07T21:46:11.311Z,58.12
2023-03-07T21:48:38.020Z,58.32
2023-03-07T21:51:05.497Z,58.23
2023-03-07T21:53:32.888Z,58.04
2023-03-07T21:56:13.332Z,58.23
2023-03-07T21:58:40.536Z,58.05
2023-03-07T22:01:15.860Z,58.23
2023-03-07T22:03:42.896Z,57.99
2023-03-07T22:06:11.761Z,58.07
2023-03-07T22:08:38.539Z,58.11
2023-03-07T22:11:06.943Z,58.08
2023-03-07T22:13:35.092Z,58.01
2023-03-07T22:16:03.930Z,58.22
2023-03-07T22:18:30.627Z,58.01
2023-03-07T22:20:57.252Z,58.20
2023-03-07T22:23:24.794Z,58.26
2023-03-07T22:25:51.406Z,58.12
2023-03-07T22:28:19.387Z,58.12
2023-03-07T22:30:47.356Z,58.24
2023-03-07T22:33:13.956Z,58.28
2023-03-07T22:35:40.557Z,58.27
2023-03-07T22:38:07.365Z,58.35
2023-03-07T22:40:33.977Z,58.35
2023-03-07T22:43:00.562Z,58.19
2023-03-07T22:45:27.130Z,58.24
2023-03-07T22:47:53.744Z,58.03
2023-03-07T22:50:20.382Z,58.24
2023-03-07T22:52:46.969Z,58.09
2023-03-07T22:55:13.530Z,58.20
2023-03-07T22:57:40.057Z,58.13
2023-03-07T23:00:08.175Z,58.13
2023-03-07T23:02:34.725Z,58.09
2023-03-07T23:05:01.248Z,58.29
2023-03-07T23:07:27.886Z,58.27
2023-03-07T23:09:54.506Z,58.25
2023-03-07T23:12:21.089Z,58.12
2023-03-07T23:14:47.709Z,58.31
2023-03-07T23:17:14.248Z,58.16
2023-03-07T23:19:40.866Z,58.19
2023-03-07T23:22:07.418Z,58.43
2023-03-07T23:24:33.985Z,58.38
2023-03-07T23:27:00.558Z,58.28
2023-03-07T23:29:27.151Z,58.36
2023-03-07T23:31:53.922Z,58.38
2023-03-07T23:34:21.078Z,58.40
2023-03-07T23:36:47.887Z,58.28
2023-03-07T23:39:15.266Z,58.16
2023-03-07T23:41:41.808Z,58.40
2023-03-07T23:44:08.347Z,58.46
2023-03-07T23:46:34.928Z,58.47
2023-03-07T23:49:01.681Z,58.50
2023-03-07T23:51:28.236Z,58.30
2023-03-07T23:53:54.746Z,58.47
2023-03-07T23:56:21.600Z,58.46
2023-03-07T23:58:51.866Z,58.55
